Edgemere, Maryland
Current Conditions -  °F | °C
As of 9:45 PM on Friday 21 Nov 2014 (Local Time) from KMTN Reporting Station
Clear Clear  
Wind Chill: 27°   Ceiling: Unl
Heat Index: 27°   Visibility: 10mi
Dew Point: 16°   Wind: 0mph
Humidity: 64%   Direction: NA
Pressure: 30.57"   Gusts: NA
Location:  39.2257°N, 76.4568°W
Report Text: KMTN 220245Z 00000KT 10SM SKC M03/M09 A3057 RMK LAST
Loading
Personal Weather Stations






























Interactive Weather Map New forecast layout! Learn more

10-Day Weather Forecast

Advertisements
Track Severe Weather on mobile